Time;durP1;ratioP1;P1;durP2;ratioP2;P2;SDS_P1;SDS_P2;PMS_P1;PMS_P2;Temp;Humidity;BMP_temperature;BMP_pressure;BME280_temperature;BME280_humidity;BME280_pressure;Samples;Min_cycle;Max_cycle;Signal;HPM_P1;HPM_P2
2024/04/23 00:01:57;;;;;;;0.50;0.50;;;;;;;-139.19;100.00;56970.53;5513058;26;20361;-67
2024/04/23 00:04:22;;;;;;;0.13;0.13;;;;;;;-139.19;100.00;56970.53;5528342;26;20345;-67
2024/04/23 00:06:55;;;;;;;1.13;0.32;;;;;;;-139.19;100.00;56970.53;5529816;26;20002;-67
2024/04/23 00:09:21;;;;;;;0.10;0.10;;;;;;;-139.19;100.00;56970.53;5528480;26;20127;-67
2024/04/23 00:11:46;;;;;;;0.10;0.10;;;;;;;-139.19;100.00;56970.53;5528458;26;20032;-67
2024/04/23 00:14:11;;;;;;;0.10;0.10;;;;;;;-139.19;100.00;56970.53;5526766;26;20004;-67
2024/04/23 00:16:37;;;;;;;0.10;0.10;;;;;;;-139.19;100.00;56970.53;5492352;26;20012;-67
2024/04/23 00:19:02;;;;;;;0.10;0.10;;;;;;;-139.19;100.00;56970.53;5492591;26;20350;-67
2024/04/23 00:21:27;;;;;;;0.77;0.75;;;;;;;-139.19;100.00;56970.53;5492272;26;19998;-67
2024/04/23 00:23:53;;;;;;;0.20;0.20;;;;;;;-139.19;100.00;56970.53;5493529;26;20062;-67
2024/04/23 00:26:18;;;;;;;0.10;0.10;;;;;;;-139.19;100.00;56970.53;5492268;26;19998;-67
2024/04/23 00:28:43;;;;;;;0.10;0.10;;;;;;;-139.19;100.00;56970.53;5492270;26;20096;-67
2024/04/23 00:31:09;;;;;;;0.40;0.40;;;;;;;-139.19;100.00;56970.53;5492131;26;20075;-67
2024/04/23 00:33:34;;;;;;;0.40;0.40;;;;;;;-139.19;100.00;56970.53;5492086;26;20062;-67
2024/04/23 00:35:59;;;;;;;0.20;0.20;;;;;;;-139.19;100.00;56970.53;5491973;26;19994;-67
2024/04/23 00:38:25;;;;;;;0.20;0.20;;;;;;;-139.19;100.00;56970.53;5492043;26;20398;-67
2024/04/23 00:40:50;;;;;;;0.13;0.13;;;;;;;-139.19;100.00;56970.53;5491979;26;20506;-67
2024/04/23 00:43:15;;;;;;;0.30;0.30;;;;;;;-139.19;100.00;56970.53;5491906;26;20470;-67
2024/04/23 00:45:46;;;;;;;0.10;0.10;;;;;;;-139.19;100.00;56970.53;5494868;26;20005;-67
2024/04/23 00:48:14;;;;;;;0.20;0.20;;;;;;;-139.19;100.00;56970.53;5492098;26;20430;-67
2024/04/23 00:50:41;;;;;;;0.43;0.43;;;;;;;-139.19;100.00;56970.53;5491368;26;20021;-67
2024/04/23 00:53:06;;;;;;;1.80;0.35;;;;;;;-139.19;100.00;56970.53;5492512;26;20022;-67
2024/04/23 00:55:33;;;;;;;0.55;0.55;;;;;;;-139.19;100.00;56970.53;5507818;26;20008;-67
2024/04/23 00:57:59;;;;;;;0.20;0.20;;;;;;;-139.19;100.00;56970.53;5527609;26;20015;-67
2024/04/23 01:00:24;;;;;;;0.57;0.57;;;;;;;-139.19;100.00;56970.53;5527916;26;20352;-67
2024/04/23 01:02:50;;;;;;;0.10;0.10;;;;;;;-139.19;100.00;56970.53;5494431;26;20352;-67
2024/04/23 01:05:15;;;;;;;0.20;0.20;;;;;;;-139.19;100.00;56970.53;5491719;26;20013;-67
2024/04/23 01:07:41;;;;;;;0.10;0.10;;;;;;;-139.19;100.00;56970.53;5521286;26;19997;-67
2024/04/23 01:10:06;;;;;;;0.17;0.17;;;;;;;-139.19;100.00;56970.53;5493440;26;20013;-67
2024/04/23 01:12:32;;;;;;;0.10;0.10;;;;;;;-139.19;100.00;56970.53;5516932;26;19997;-67
2024/04/23 01:14:58;;;;;;;0.15;0.15;;;;;;;-139.19;100.00;56970.53;5527267;26;19997;-67
2024/04/23 01:17:24;;;;;;;0.10;0.10;;;;;;;-139.19;100.00;56970.53;5493993;26;19994;-67
2024/04/23 01:19:57;;;;;;;0.20;0.20;;;;;;;-139.19;100.00;56970.53;5493701;26;19998;-67
2024/04/23 01:22:22;;;;;;;0.90;0.90;;;;;;;-139.19;100.00;56970.53;5508397;26;20438;-67
2024/04/23 01:25:08;;;;;;;0.10;0.10;;;;;;;-139.19;100.00;56970.53;5524930;26;19998;-67
2024/04/23 01:27:35;;;;;;;0.20;0.20;;;;;;;-139.19;100.00;56970.53;5527447;26;19997;-67
2024/04/23 01:30:01;;;;;;;0.77;0.77;;;;;;;-139.19;100.00;56970.53;5528173;26;20077;-67
2024/04/23 01:32:29;;;;;;;0.75;0.75;;;;;;;-139.19;100.00;56970.53;5527133;26;20005;-67
2024/04/23 01:34:55;;;;;;;0.52;0.52;;;;;;;-139.19;100.00;56970.53;5527617;26;20077;-67
2024/04/23 01:37:24;;;;;;;0.25;0.25;;;;;;;-139.19;100.00;56970.53;5511478;26;20434;-67
2024/04/23 01:39:51;;;;;;;0.20;0.20;;;;;;;-139.19;100.00;56970.53;5527208;26;20008;-67
2024/04/23 01:42:16;;;;;;;0.10;0.10;;;;;;;-139.19;100.00;56970.53;5526436;26;20008;-67
2024/04/23 01:44:43;;;;;;;0.10;0.10;;;;;;;-139.19;100.00;56970.53;5506681;26;20002;-67
2024/04/23 01:47:08;;;;;;;0.10;0.10;;;;;;;-139.19;100.00;56970.53;5491318;26;20033;-67
2024/04/23 01:49:34;;;;;;;0.10;0.10;;;;;;;-139.19;100.00;56970.53;5491095;26;20156;-67
2024/04/23 01:51:59;;;;;;;0.57;0.52;;;;;;;-139.19;100.00;56970.53;5498421;26;19997;-67
2024/04/23 01:54:25;;;;;;;0.10;0.10;;;;;;;-139.19;100.00;56970.53;5526765;26;20016;-67
2024/04/23 01:56:50;;;;;;;0.40;0.40;;;;;;;-139.19;100.00;56970.53;5496991;26;19994;-67
2024/04/23 01:59:16;;;;;;;0.22;0.22;;;;;;;-139.19;100.00;56970.53;5491614;26;20037;-67
2024/04/23 02:01:44;;;;;;;0.10;0.10;;;;;;;-139.19;100.00;56970.53;5516781;26;19994;-67
2024/04/23 02:04:12;;;;;;;0.30;0.30;;;;;;;-139.19;100.00;56970.53;5525479;26;19997;-67
2024/04/23 02:06:37;;;;;;;0.30;0.30;;;;;;;-139.19;100.00;56970.53;5509087;26;20073;-67
2024/04/23 02:09:03;;;;;;;0.10;0.10;;;;;;;-139.19;100.00;56970.53;5527031;26;20009;-67
2024/04/23 02:11:29;;;;;;;0.40;0.40;;;;;;;-139.19;100.00;56970.53;5526296;26;20009;-67
2024/04/23 02:13:55;;;;;;;0.32;0.32;;;;;;;-139.19;100.00;56970.53;5526629;26;20005;-67
2024/04/23 02:16:20;;;;;;;0.13;0.13;;;;;;;-139.19;100.00;56970.53;5526547;26;20263;-67
2024/04/23 02:18:45;;;;;;;0.10;0.10;;;;;;;-139.19;100.00;56970.53;5523829;26;20012;-67
2024/04/23 02:21:11;;;;;;;0.20;0.20;;;;;;;-139.19;100.00;56970.53;5491362;26;20343;-67
2024/04/23 02:23:36;;;;;;;0.10;0.10;;;;;;;-139.19;100.00;56970.53;5490719;26;20002;-67
2024/04/23 02:26:01;;;;;;;0.10;0.10;;;;;;;-139.19;100.00;56970.53;5490782;26;20030;-67
2024/04/23 02:28:27;;;;;;;0.30;0.30;;;;;;;-139.19;100.00;56970.53;5491100;26;19998;-67
2024/04/23 02:30:52;;;;;;;0.10;0.10;;;;;;;-139.19;100.00;56970.53;5490531;26;20046;-67
2024/04/23 02:33:17;;;;;;;0.82;0.77;;;;;;;-139.19;100.00;56970.53;5490367;26;19998;-67
2024/04/23 02:35:43;;;;;;;0.10;0.10;;;;;;;-139.19;100.00;56970.53;5515427;26;19993;-67
2024/04/23 02:38:08;;;;;;;0.10;0.10;;;;;;;-139.19;100.00;56970.53;5526610;26;20348;-67
2024/04/23 02:40:33;;;;;;;0.20;0.20;;;;;;;-139.19;100.00;56970.53;5527239;26;20333;-67
2024/04/23 02:42:59;;;;;;;0.17;0.17;;;;;;;-139.19;100.00;56970.53;5527036;26;19999;-67
2024/04/23 02:45:24;;;;;;;0.20;0.20;;;;;;;-139.19;100.00;56970.53;5526984;26;19996;-67
2024/04/23 02:47:49;;;;;;;0.20;0.20;;;;;;;-139.19;100.00;56970.53;5524934;26;20426;-67
2024/04/23 02:50:15;;;;;;;0.13;0.13;;;;;;;-139.19;100.00;56970.53;5526102;26;20501;-67
2024/04/23 02:52:40;;;;;;;0.57;0.57;;;;;;;-139.19;100.00;56970.53;5526207;26;19997;-67
2024/04/23 02:55:06;;;;;;;0.20;0.20;;;;;;;-139.19;100.00;56970.53;5525915;26;20469;-67
2024/04/23 02:57:31;;;;;;;0.10;0.10;;;;;;;-139.19;100.00;56970.53;5509297;26;20016;-67
2024/04/23 02:59:56;;;;;;;0.30;0.30;;;;;;;-139.19;100.00;56970.53;5489912;26;20030;-67
2024/04/23 03:02:22;;;;;;;0.00;0.00;;;;;;;-139.19;100.00;56970.53;5520528;26;20073;-67
2024/04/23 03:04:47;;;;;;;0.10;0.10;;;;;;;-139.19;100.00;56970.53;5525466;26;20073;-67
2024/04/23 03:07:12;;;;;;;0.10;0.10;;;;;;;-139.19;100.00;56970.53;5525761;26;20462;-67
2024/04/23 03:09:38;;;;;;;0.20;0.20;;;;;;;-139.19;100.00;56970.53;5526452;26;20027;-67
2024/04/23 03:12:03;;;;;;;0.15;0.15;;;;;;;-139.19;100.00;56970.53;5525686;26;20013;-67
2024/04/23 03:14:29;;;;;;;0.10;0.10;;;;;;;-139.19;100.00;56970.53;5528299;25;19994;-67
2024/04/23 03:16:55;;;;;;;0.20;0.20;;;;;;;-139.19;100.00;56970.53;5533696;26;20001;-67
2024/04/23 03:19:20;;;;;;;1.05;0.98;;;;;;;-139.19;100.00;56970.53;5532931;26;20430;-67
2024/04/23 03:21:55;;;;;;;0.10;0.10;;;;;;;-139.19;100.00;56970.53;5533566;26;20015;-67
2024/04/23 03:24:22;;;;;;;0.80;0.75;;;;;;;-139.19;100.00;56970.53;5533085;26;20024;-67
2024/04/23 03:26:49;;;;;;;0.20;0.20;;;;;;;-139.19;100.00;56970.53;5533310;26;20009;-67
2024/04/23 03:29:14;;;;;;;0.20;0.20;;;;;;;-139.19;100.00;56970.53;5515442;26;20452;-67
2024/04/23 03:31:39;;;;;;;0.30;0.30;;;;;;;-139.19;100.00;56970.53;5524204;26;20009;-68
2024/04/23 03:34:05;;;;;;;0.20;0.20;;;;;;;-139.19;100.00;56970.53;5510853;26;19994;-67
2024/04/23 03:36:30;;;;;;;0.10;0.10;;;;;;;-139.19;100.00;56970.53;5512772;26;20002;-67
2024/04/23 03:38:55;;;;;;;0.10;0.10;;;;;;;-139.19;100.00;56970.53;5512231;26;20001;-67
2024/04/23 03:41:21;;;;;;;0.10;0.10;;;;;;;-139.19;100.00;56970.53;5528368;26;20047;-67
2024/04/23 03:43:46;;;;;;;0.10;0.10;;;;;;;-139.19;100.00;56970.53;5497590;26;20011;-67
2024/04/23 03:46:12;;;;;;;0.10;0.10;;;;;;;-139.19;100.00;56970.53;5528445;26;20001;-67
2024/04/23 03:48:37;;;;;;;0.15;0.15;;;;;;;-139.19;100.00;56970.53;5533030;26;20005;-67
2024/04/23 03:51:04;;;;;;;0.10;0.10;;;;;;;-139.19;100.00;56970.53;5506725;26;20002;-67
2024/04/23 03:53:29;;;;;;;0.43;0.43;;;;;;;-139.19;100.00;56970.53;5520340;26;20069;-67
2024/04/23 03:55:54;;;;;;;0.10;0.10;;;;;;;-139.19;100.00;56970.53;5533411;26;20378;-67
2024/04/23 03:58:20;;;;;;;0.20;0.20;;;;;;;-139.19;100.00;56970.53;5533257;26;20005;-67
2024/04/23 04:00:45;;;;;;;0.20;0.20;;;;;;;-139.19;100.00;56970.53;5513697;26;20329;-67
2024/04/23 04:06:06;;;;;;;0.50;0.50;;;;;;;-139.19;100.00;56970.53;5497392;26;20028;-67
2024/04/23 04:08:38;;;;;;;0.10;0.10;;;;;;;-139.19;100.00;56970.53;5522145;26;19994;-67
2024/04/23 04:11:04;;;;;;;0.10;0.10;;;;;;;-139.19;100.00;56970.53;5500711;26;20430;-67
2024/04/23 04:13:29;;;;;;;0.10;0.10;;;;;;;-139.19;100.00;56970.53;5496458;26;19988;-67
2024/04/23 04:15:54;;;;;;;0.10;0.10;;;;;;;-139.19;100.00;56970.53;5496295;26;20044;-67
2024/04/23 04:18:20;;;;;;;0.43;0.43;;;;;;;-139.19;100.00;56970.53;5496366;26;19997;-67
2024/04/23 04:20:45;;;;;;;0.08;0.08;;;;;;;-139.19;100.00;56970.53;5496428;26;19994;-67
2024/04/23 04:23:11;;;;;;;0.10;0.10;;;;;;;-139.19;100.00;56970.53;5496454;26;20030;-67
2024/04/23 04:25:36;;;;;;;1.70;1.60;;;;;;;-139.19;100.00;56970.53;5493290;26;20002;-67
2024/04/23 04:28:01;;;;;;;0.10;0.10;;;;;;;-139.19;100.00;56970.53;5492222;26;19994;-67
2024/04/23 04:30:27;;;;;;;0.20;0.20;;;;;;;-139.19;100.00;56970.53;5492222;26;20446;-67
2024/04/23 04:32:52;;;;;;;0.10;0.10;;;;;;;-139.19;100.00;56970.53;5492177;26;20438;-67
2024/04/23 04:35:18;;;;;;;0.20;0.20;;;;;;;-139.19;100.00;56970.53;5492003;26;19990;-67
2024/04/23 04:37:43;;;;;;;0.17;0.17;;;;;;;-139.19;100.00;56970.53;5492135;26;19994;-68
2024/04/23 04:40:09;;;;;;;0.20;0.20;;;;;;;-139.19;100.00;56970.53;5492228;26;19997;-70
2024/04/23 04:42:34;;;;;;;0.10;0.10;;;;;;;-139.19;100.00;56970.53;5492064;26;20057;-70
2024/04/23 04:45:00;;;;;;;0.20;0.20;;;;;;;-139.19;100.00;56970.53;5491948;26;20013;-70
2024/04/23 04:47:25;;;;;;;0.47;0.47;;;;;;;-139.19;100.00;56970.53;5492015;26;19990;-70
2024/04/23 04:49:50;;;;;;;0.10;0.10;;;;;;;-139.19;100.00;56970.53;5492021;26;20334;-70
2024/04/23 04:52:16;;;;;;;0.52;0.52;;;;;;;-139.19;100.00;56970.53;5491898;26;20074;-70
2024/04/23 04:54:41;;;;;;;0.22;0.22;;;;;;;-139.19;100.00;56970.53;5491774;26;19987;-70
2024/04/23 04:57:06;;;;;;;0.20;0.20;;;;;;;-139.19;100.00;56970.53;5491789;26;19997;-70
2024/04/23 04:59:32;;;;;;;0.10;0.10;;;;;;;-139.19;100.00;56970.53;5491899;26;20330;-70
2024/04/23 05:01:57;;;;;;;0.10;0.10;;;;;;;-139.19;100.00;56970.53;5492048;26;20004;-70
2024/04/23 05:04:22;;;;;;;0.10;0.10;;;;;;;-139.19;100.00;56970.53;5491982;26;20000;-70
2024/04/23 05:06:48;;;;;;;0.30;0.30;;;;;;;-139.19;100.00;56970.53;5491976;26;20062;-70
2024/04/23 05:09:13;;;;;;;0.10;0.10;;;;;;;-139.19;100.00;56970.53;5492010;26;20001;-70
2024/04/23 05:11:40;;;;;;;0.20;0.20;;;;;;;-139.19;100.00;56970.53;5492022;26;20001;-70
2024/04/23 05:14:05;;;;;;;0.85;0.85;;;;;;;-139.19;100.00;56970.53;5491780;26;20005;-70
2024/04/23 05:16:31;;;;;;;0.10;0.10;;;;;;;-139.19;100.00;56970.53;5491834;26;20368;-72
2024/04/23 05:18:57;;;;;;;0.10;0.10;;;;;;;-139.19;100.00;56970.53;5491786;26;20014;-72
2024/04/23 05:21:22;;;;;;;1.00;1.00;;;;;;;-139.19;100.00;56970.53;5491782;26;20419;-72
2024/04/23 05:23:47;;;;;;;0.10;0.10;;;;;;;-139.19;100.00;56970.53;5491670;26;20422;-71
2024/04/23 05:26:13;;;;;;;0.60;0.60;;;;;;;-139.19;100.00;56970.53;5491327;26;20001;-71
2024/04/23 05:28:38;;;;;;;0.20;0.20;;;;;;;-139.19;100.00;56970.53;5491388;26;20001;-71
2024/04/23 05:33:48;;;;;;;0.10;0.10;;;;;;;-139.19;100.00;56970.53;5491436;26;20004;-71
2024/04/23 05:36:13;;;;;;;0.10;0.10;;;;;;;-139.19;100.00;56970.53;5491073;26;19998;-71
2024/04/23 05:38:38;;;;;;;0.20;0.20;;;;;;;-139.19;100.00;56970.53;5491249;26;20369;-71
2024/04/23 05:41:04;;;;;;;0.10;0.10;;;;;;;-139.19;100.00;56970.53;5491143;26;19994;-71
2024/04/23 05:43:29;;;;;;;0.10;0.10;;;;;;;-139.19;100.00;56970.53;5491141;26;19990;-71
2024/04/23 05:45:54;;;;;;;0.20;0.20;;;;;;;-139.19;100.00;56970.53;5491120;26;20042;-70
2024/04/23 05:48:57;;;;;;;0.88;0.85;;;;;;;-139.19;100.00;56970.53;5491025;26;19998;-71
2024/04/23 05:52:00;;;;;;;0.95;0.60;;;;;;;-139.19;100.00;56970.53;5491166;26;20005;-69
2024/04/23 05:54:44;;;;;;;;;;;;;;;-139.19;100.00;56970.53;5491587;26;20008;-69
2024/04/23 05:57:09;;;;;;;0.10;0.10;;;;;;;-139.19;100.00;56970.53;5490949;26;19924;-69
2024/04/23 05:59:35;;;;;;;0.22;0.22;;;;;;;-139.19;100.00;56970.53;5491063;26;19994;-69
2024/04/23 06:02:00;;;;;;;0.28;0.28;;;;;;;-139.19;100.00;56970.53;5491151;26;20008;-69
2024/04/23 06:04:25;;;;;;;0.55;0.55;;;;;;;-139.19;100.00;56970.53;5491022;26;19990;-69
2024/04/23 06:06:51;;;;;;;0.10;0.10;;;;;;;-139.19;100.00;56970.53;5491178;26;19993;-69
2024/04/23 06:09:16;;;;;;;0.32;0.32;;;;;;;-139.19;100.00;56970.53;5491102;26;20002;-68
2024/04/23 06:11:41;;;;;;;0.22;0.22;;;;;;;-139.19;100.00;56970.53;5491067;26;20004;-69
2024/04/23 06:14:09;;;;;;;0.50;0.50;;;;;;;-139.19;100.00;56970.53;5490900;26;20005;-69
2024/04/23 06:16:35;;;;;;;0.20;0.20;;;;;;;-139.19;100.00;56970.53;5491011;26;19998;-69
2024/04/23 06:19:00;;;;;;;0.28;0.28;;;;;;;-139.19;100.00;56970.53;5490996;26;20435;-69
2024/04/23 06:21:26;;;;;;;2.00;0.73;;;;;;;-139.19;100.00;56970.53;5490851;26;20442;-69
2024/04/23 06:23:51;;;;;;;0.50;0.50;;;;;;;-139.19;100.00;56970.53;5490856;26;20446;-69
2024/04/23 06:26:16;;;;;;;0.13;0.13;;;;;;;-139.19;100.00;56970.53;5490783;26;19998;-69
2024/04/23 06:28:42;;;;;;;0.40;0.40;;;;;;;-139.19;100.00;56970.53;5490816;26;20009;-69
2024/04/23 06:31:11;;;;;;;0.60;0.60;;;;;;;-139.19;100.00;56970.53;5490761;26;19998;-69
2024/04/23 06:33:36;;;;;;;0.10;0.10;;;;;;;-139.19;100.00;56970.53;5490758;26;19997;-69
2024/04/23 06:36:01;;;;;;;0.30;0.30;;;;;;;-139.19;100.00;56970.53;5490586;26;20316;-69
2024/04/23 06:38:27;;;;;;;0.25;0.25;;;;;;;-139.19;100.00;56970.53;5490643;26;20352;-69
2024/04/23 06:40:52;;;;;;;0.85;0.32;;;;;;;-139.19;100.00;56970.53;5490821;26;20361;-69
2024/04/23 06:43:17;;;;;;;0.13;0.13;;;;;;;-139.19;100.00;56970.53;5490502;26;20001;-69
2024/04/23 06:45:43;;;;;;;0.32;0.20;;;;;;;-139.19;100.00;56970.53;5490639;26;20002;-69
2024/04/23 06:48:13;;;;;;;1.17;0.75;;;;;;;-139.19;100.00;56970.53;5489364;26;19994;-69
2024/04/23 06:50:39;;;;;;;0.22;0.22;;;;;;;-139.19;100.00;56970.53;5490220;26;20005;-69
2024/04/23 06:53:04;;;;;;;0.10;0.10;;;;;;;-139.19;100.00;56970.53;5490109;26;19994;-69
2024/04/23 06:55:29;;;;;;;0.38;0.38;;;;;;;-139.19;100.00;56970.53;5490085;26;20375;-69
2024/04/23 06:57:55;;;;;;;0.60;0.60;;;;;;;-139.19;100.00;56970.53;5489896;26;19991;-69
2024/04/23 07:00:20;;;;;;;0.10;0.10;;;;;;;-139.19;100.00;56970.53;5490363;26;20458;-71
2024/04/23 07:02:46;;;;;;;0.30;0.30;;;;;;;-139.19;100.00;56970.53;5490286;26;19994;-71
2024/04/23 07:05:11;;;;;;;0.20;0.20;;;;;;;-139.19;100.00;56970.53;5490200;26;19994;-71
2024/04/23 07:07:36;;;;;;;0.30;0.30;;;;;;;-139.19;100.00;56970.53;5490140;26;19994;-71
2024/04/23 07:10:01;;;;;;;1.10;0.45;;;;;;;-139.19;100.00;56970.53;5490074;26;20388;-71
2024/04/23 07:12:27;;;;;;;0.15;0.15;;;;;;;-139.19;100.00;56970.53;5490100;26;20005;-71
2024/04/23 07:14:53;;;;;;;0.40;0.40;;;;;;;-139.19;100.00;56970.53;5489995;26;19994;-71
2024/04/23 07:17:18;;;;;;;0.80;0.80;;;;;;;-139.19;100.00;56970.53;5489966;26;20002;-71
2024/04/23 07:19:43;;;;;;;0.30;0.30;;;;;;;-139.19;100.00;56970.53;5489982;26;20066;-71
2024/04/23 07:22:09;;;;;;;0.20;0.20;;;;;;;-139.19;100.00;56970.53;5489881;26;19994;-71
2024/04/23 07:24:34;;;;;;;0.28;0.25;;;;;;;-139.19;100.00;56970.53;5489843;26;20002;-71
2024/04/23 07:26:59;;;;;;;0.55;0.55;;;;;;;-139.19;100.00;56970.53;5489875;26;20010;-71
2024/04/23 07:29:27;;;;;;;0.73;0.60;;;;;;;-139.19;100.00;56970.53;5489784;26;20006;-71
2024/04/23 07:31:53;;;;;;;0.98;0.38;;;;;;;-139.19;100.00;56970.53;5489783;26;20040;-71
2024/04/23 07:34:18;;;;;;;0.70;0.55;;;;;;;-139.19;100.00;56970.53;5489572;26;20462;-71
2024/04/23 07:36:43;;;;;;;0.32;0.32;;;;;;;-139.19;100.00;56970.53;5489570;26;20059;-71
2024/04/23 07:39:09;;;;;;;0.20;0.20;;;;;;;-139.19;100.00;56970.53;5489597;26;20003;-72
2024/04/23 07:41:34;;;;;;;0.55;0.55;;;;;;;-139.19;100.00;56970.53;5489707;26;20002;-71
2024/04/23 07:44:00;;;;;;;0.47;0.47;;;;;;;-139.19;100.00;56970.53;5489487;26;19991;-71
2024/04/23 07:46:25;;;;;;;0.73;0.65;;;;;;;-139.19;100.00;56970.53;5489273;26;20438;-72
2024/04/23 07:48:50;;;;;;;0.60;0.60;;;;;;;-139.19;100.00;56970.53;5489249;26;20337;-71
2024/04/23 07:51:16;;;;;;;0.25;0.25;;;;;;;-139.19;100.00;56970.53;5489366;26;20035;-72
2024/04/23 07:53:41;;;;;;;1.63;0.68;;;;;;;-139.19;100.00;56970.53;5489140;26;20037;-71
2024/04/23 07:56:07;;;;;;;0.28;0.28;;;;;;;-139.19;100.00;56970.53;5488902;26;20071;-71
2024/04/23 07:58:32;;;;;;;0.20;0.20;;;;;;;-139.19;100.00;56970.53;5488908;26;20066;-71
2024/04/23 08:00:58;;;;;;;0.30;0.30;;;;;;;-139.19;100.00;56970.53;5490299;26;20013;-71
2024/04/23 08:03:23;;;;;;;0.30;0.30;;;;;;;-139.19;100.00;56970.53;5493036;26;20152;-71
2024/04/23 08:05:54;;;;;;;0.52;0.52;;;;;;;-139.19;100.00;56970.53;5492738;26;20055;-71
2024/04/23 08:08:19;;;;;;;0.35;0.35;;;;;;;-139.19;100.00;56970.53;5492843;26;20398;-71
2024/04/23 08:10:44;;;;;;;0.80;0.47;;;;;;;-139.19;100.00;56970.53;5492923;26;20062;-71
2024/04/23 08:13:10;;;;;;;0.20;0.20;;;;;;;-139.19;100.00;56970.53;5492704;26;19991;-71
2024/04/23 08:15:35;;;;;;;1.05;0.77;;;;;;;-139.19;100.00;56970.53;5492642;26;20001;-71
2024/04/23 08:18:01;;;;;;;0.52;0.52;;;;;;;-139.19;100.00;56970.53;5492716;26;20326;-71
2024/04/23 08:20:26;;;;;;;0.55;0.52;;;;;;;-139.19;100.00;56970.53;5492698;26;19994;-71
2024/04/23 08:22:56;;;;;;;0.60;0.55;;;;;;;-139.19;100.00;56970.53;5492284;26;19990;-71
2024/04/23 08:25:21;;;;;;;0.40;0.40;;;;;;;-139.19;100.00;56970.53;5492280;26;20034;-71
2024/04/23 08:27:47;;;;;;;0.77;0.63;;;;;;;-139.19;100.00;56970.53;5492342;26;20009;-71
2024/04/23 08:30:12;;;;;;;0.28;0.28;;;;;;;-139.19;100.00;56970.53;5492246;26;20311;-71
2024/04/23 08:32:40;;;;;;;0.85;0.68;;;;;;;-139.19;100.00;56970.53;5492223;26;20087;-71
2024/04/23 08:35:05;;;;;;;0.40;0.40;;;;;;;-139.19;100.00;56970.53;5492093;26;20070;-71
2024/04/23 08:37:31;;;;;;;0.38;0.17;;;;;;;-139.19;100.00;56970.53;5492121;26;20391;-71
2024/04/23 08:39:56;;;;;;;0.30;0.30;;;;;;;-139.19;100.00;56970.53;5459897;26;20034;-72
2024/04/23 08:42:24;;;;;;;0.82;0.82;;;;;;;-139.19;100.00;56970.53;5492142;26;19995;-71
2024/04/23 08:44:51;;;;;;;0.95;0.60;;;;;;;-139.19;100.00;56970.53;5492025;26;19997;-71
2024/04/23 08:47:17;;;;;;;0.40;0.40;;;;;;;-139.19;100.00;56970.53;5492026;26;20008;-71
2024/04/23 08:49:44;;;;;;;0.38;0.38;;;;;;;-139.19;100.00;56970.53;5491987;26;19998;-71
2024/04/23 08:52:11;;;;;;;0.95;0.57;;;;;;;-139.19;100.00;56970.53;5491919;26;20466;-71
2024/04/23 08:54:39;;;;;;;0.68;0.68;;;;;;;-139.19;100.00;56970.53;5491837;26;20006;-71
2024/04/23 08:57:07;;;;;;;0.60;0.60;;;;;;;-139.19;100.00;56970.53;5459662;26;19998;-71
2024/04/23 08:59:32;;;;;;;0.50;0.50;;;;;;;-139.19;100.00;56970.53;5491665;26;20025;-71
2024/04/23 09:02:03;;;;;;;0.52;0.52;;;;;;;-139.19;100.00;56970.53;5491683;26;20434;-71
2024/04/23 09:04:29;;;;;;;0.75;0.40;;;;;;;-139.19;100.00;56970.53;5491627;26;19998;-71
2024/04/23 09:06:55;;;;;;;0.15;0.15;;;;;;;-139.19;100.00;56970.53;5491794;26;20463;-71
2024/04/23 09:09:21;;;;;;;0.60;0.60;;;;;;;-139.19;100.00;56970.53;5491923;26;20001;-71
2024/04/23 09:11:50;;;;;;;0.50;0.50;;;;;;;-139.19;100.00;56970.53;5490895;26;20326;-71
2024/04/23 09:14:16;;;;;;;1.23;0.98;;;;;;;-139.19;100.00;56970.53;5491495;26;19994;-71
2024/04/23 09:16:41;;;;;;;0.30;0.30;;;;;;;-139.19;100.00;56970.53;5491534;26;20009;-72
2024/04/23 09:19:08;;;;;;;0.35;0.35;;;;;;;-139.19;100.00;56970.53;5491534;26;19998;-72
2024/04/23 09:21:33;;;;;;;1.17;0.65;;;;;;;-139.19;100.00;56970.53;5491532;26;20033;-71
2024/04/23 09:24:02;;;;;;;0.30;0.30;;;;;;;-139.19;100.00;56970.53;5491753;26;20025;-71
2024/04/23 09:26:28;;;;;;;0.50;0.50;;;;;;;-139.19;100.00;56970.53;5491413;26;20462;-71
2024/04/23 09:28:56;;;;;;;0.30;0.30;;;;;;;-139.19;100.00;56970.53;5491362;26;19999;-71
2024/04/23 09:31:21;;;;;;;0.32;0.32;;;;;;;-139.19;100.00;56970.53;5491359;26;20005;-71
2024/04/23 09:33:57;;;;;;;2.75;1.17;;;;;;;-139.19;100.00;56970.53;5491430;26;19998;-71
2024/04/23 09:36:23;;;;;;;3.33;0.60;;;;;;;-139.19;100.00;56970.53;5459129;26;20067;-72
2024/04/23 09:38:56;;;;;;;0.25;0.25;;;;;;;-139.19;100.00;56970.53;5491285;26;20330;-72
2024/04/23 09:41:24;;;;;;;1.55;0.85;;;;;;;-139.19;100.00;56970.53;5491227;26;20065;-71
2024/04/23 09:43:57;;;;;;;0.70;0.55;;;;;;;-139.19;100.00;56970.53;5491397;26;20034;-71
2024/04/23 09:46:23;;;;;;;0.17;0.17;;;;;;;-139.19;100.00;56970.53;5491148;26;19994;-71
2024/04/23 09:48:50;;;;;;;2.20;1.20;;;;;;;-139.19;100.00;56970.53;5491130;26;19998;-71
2024/04/23 09:51:18;;;;;;;0.43;0.43;;;;;;;-139.19;100.00;56970.53;5491093;26;20442;-71
2024/04/23 09:53:43;;;;;;;1.05;0.95;;;;;;;-139.19;100.00;56970.53;5491018;26;20006;-71
2024/04/23 09:56:14;;;;;;;0.15;0.15;;;;;;;-139.19;100.00;56970.53;5490882;26;20008;-72
2024/04/23 09:58:39;;;;;;;0.60;0.50;;;;;;;-139.19;100.00;56970.53;5490953;26;20322;-71
2024/04/23 10:01:07;;;;;;;0.08;0.08;;;;;;;-139.19;100.00;56970.53;5491230;26;20037;-71
2024/04/23 10:03:34;;;;;;;0.32;0.32;;;;;;;-139.19;100.00;56970.53;5491329;26;20467;-71
2024/04/23 10:06:04;;;;;;;1.38;0.68;;;;;;;-139.19;100.00;56970.53;5491060;26;19994;-71
2024/04/23 10:09:06;;;;;;;0.40;0.40;;;;;;;-139.19;100.00;56970.53;5491116;26;20063;-71
2024/04/23 10:11:43;;;;;;;1.15;0.52;;;;;;;-139.19;100.00;56970.53;5491073;26;20009;-71
2024/04/23 10:14:38;;;;;;;1.08;0.52;;;;;;;-139.19;100.00;56970.53;5490973;26;20307;-71
2024/04/23 10:17:11;;;;;;;0.20;0.20;;;;;;;-139.19;100.00;56970.53;5466895;26;20004;-72
2024/04/23 10:19:38;;;;;;;0.30;0.30;;;;;;;-139.19;100.00;56970.53;5490889;26;20446;-71
2024/04/23 10:22:04;;;;;;;0.30;0.30;;;;;;;-139.19;100.00;56970.53;5491094;26;20018;-71
2024/04/23 10:24:30;;;;;;;0.10;0.10;;;;;;;-139.19;100.00;56970.53;5489400;26;19994;-72
2024/04/23 10:26:56;;;;;;;0.22;0.22;;;;;;;-139.19;100.00;56970.53;5490893;26;20009;-71
2024/04/23 10:29:23;;;;;;;0.30;0.30;;;;;;;-139.19;100.00;56970.53;5490790;26;19994;-71
2024/04/23 10:31:48;;;;;;;0.30;0.30;;;;;;;-139.19;100.00;56970.53;5490936;26;20132;-71
2024/04/23 10:34:15;;;;;;;0.43;0.30;;;;;;;-139.19;100.00;56970.53;5490649;26;19990;-71
2024/04/23 10:36:42;;;;;;;0.20;0.20;;;;;;;-139.19;100.00;56970.53;5490716;26;19991;-71
2024/04/23 10:39:11;;;;;;;0.20;0.20;;;;;;;-139.19;100.00;56970.53;5490690;26;20446;-71
2024/04/23 10:41:40;;;;;;;0.40;0.40;;;;;;;-139.19;100.00;56970.53;5490640;26;20442;-71
2024/04/23 10:44:09;;;;;;;0.25;0.25;;;;;;;-139.19;100.00;56970.53;5490699;26;20009;-71
2024/04/23 10:46:36;;;;;;;4.07;0.47;;;;;;;-139.19;100.00;56970.53;5490670;26;20459;-71
2024/04/23 10:49:15;;;;;;;0.30;0.30;;;;;;;-139.19;100.00;56970.53;5490205;26;19990;-71
2024/04/23 10:51:44;;;;;;;0.10;0.10;;;;;;;-139.19;100.00;56970.53;5490191;26;19991;-71
2024/04/23 10:54:13;;;;;;;1.67;1.25;;;;;;;-139.19;100.00;56970.53;5490005;26;19998;-71
2024/04/23 10:56:40;;;;;;;0.20;0.20;;;;;;;-139.19;100.00;56970.53;5489986;26;19998;-71
2024/04/23 10:59:16;;;;;;;1.23;1.05;;;;;;;-139.19;100.00;56970.53;5490060;26;19990;-72
2024/04/23 11:02:02;;;;;;;0.20;0.20;;;;;;;-139.19;100.00;56970.53;5490307;26;20002;-72
2024/04/23 11:04:35;;;;;;;0.28;0.28;;;;;;;-139.19;100.00;56970.53;5490218;26;20487;-72
2024/04/23 11:07:04;;;;;;;0.85;0.50;;;;;;;-139.19;100.00;56970.53;5490219;26;20018;-72
2024/04/23 11:09:37;;;;;;;0.10;0.10;;;;;;;-139.19;100.00;56970.53;5490175;26;20002;-72
2024/04/23 11:12:13;;;;;;;1.17;0.70;;;;;;;-139.19;100.00;56970.53;5490076;26;20317;-72
2024/04/23 11:14:39;;;;;;;0.28;0.28;;;;;;;-139.19;100.00;56970.53;5489978;26;20062;-72